sensor_id;sensor_type;location;lat;lon;timestamp;pressure;altitude;pressure_sealevel;temperature;humidity
83896;BME280;74045;42.812;74.638;2024-01-15T00:01:50;91267.13;;;-3.50;84.96
83896;BME280;74045;42.812;74.638;2024-01-15T00:04:16;91258.06;;;-3.56;85.10
83896;BME280;74045;42.812;74.638;2024-01-15T00:06:41;91242.88;;;-3.58;85.58
83896;BME280;74045;42.812;74.638;2024-01-15T00:09:07;91235.28;;;-3.54;85.44
83896;BME280;74045;42.812;74.638;2024-01-15T00:11:33;91212.22;;;-3.60;84.95
83896;BME280;74045;42.812;74.638;2024-01-15T00:13:58;91233.72;;;-3.47;86.08
83896;BME280;74045;42.812;74.638;2024-01-15T00:16:24;91203.38;;;-3.58;85.93
83896;BME280;74045;42.812;74.638;2024-01-15T00:18:50;91209.94;;;-3.31;84.90
83896;BME280;74045;42.812;74.638;2024-01-15T00:21:18;91196.25;;;-3.32;85.57
83896;BME280;74045;42.812;74.638;2024-01-15T00:23:47;91124.88;;;-3.87;85.36
83896;BME280;74045;42.812;74.638;2024-01-15T00:26:12;91168.84;;;-3.45;85.13
83896;BME280;74045;42.812;74.638;2024-01-15T00:28:38;91225.56;;;-3.28;86.21
83896;BME280;74045;42.812;74.638;2024-01-15T00:31:04;91126.53;;;-3.83;86.10
83896;BME280;74045;42.812;74.638;2024-01-15T00:33:31;91216.81;;;-3.35;85.88
83896;BME280;74045;42.812;74.638;2024-01-15T00:35:57;91233.41;;;-3.16;85.54
83896;BME280;74045;42.812;74.638;2024-01-15T00:38:22;91232.66;;;-3.16;85.29
83896;BME280;74045;42.812;74.638;2024-01-15T00:40:48;91242.19;;;-3.17;85.48
83896;BME280;74045;42.812;74.638;2024-01-15T00:43:14;91235.97;;;-3.16;85.91
83896;BME280;74045;42.812;74.638;2024-01-15T00:45:40;91241.84;;;-3.06;85.02
83896;BME280;74045;42.812;74.638;2024-01-15T00:48:06;91238.81;;;-3.08;84.38
83896;BME280;74045;42.812;74.638;2024-01-15T00:50:32;91228.22;;;-3.16;84.84
83896;BME280;74045;42.812;74.638;2024-01-15T00:52:57;91138.25;;;-3.85;85.63
83896;BME280;74045;42.812;74.638;2024-01-15T00:55:23;91152.81;;;-3.80;85.54
83896;BME280;74045;42.812;74.638;2024-01-15T00:57:49;91242.97;;;-3.16;86.63
83896;BME280;74045;42.812;74.638;2024-01-15T01:00:15;91258.25;;;-3.02;85.16
83896;BME280;74045;42.812;74.638;2024-01-15T01:02:40;91214.75;;;-3.21;85.05
83896;BME280;74045;42.812;74.638;2024-01-15T01:05:06;91256.91;;;-3.08;84.98
83896;BME280;74045;42.812;74.638;2024-01-15T01:07:32;91264.03;;;-3.05;85.29
83896;BME280;74045;42.812;74.638;2024-01-15T01:09:58;91259.47;;;-3.08;86.54
83896;BME280;74045;42.812;74.638;2024-01-15T01:12:23;91229.72;;;-3.15;86.25
83896;BME280;74045;42.812;74.638;2024-01-15T01:14:49;91264.56;;;-2.91;85.73
83896;BME280;74045;42.812;74.638;2024-01-15T01:17:15;91251.81;;;-2.96;85.80
83896;BME280;74045;42.812;74.638;2024-01-15T01:19:40;91243.00;;;-2.95;86.87
83896;BME280;74045;42.812;74.638;2024-01-15T01:22:06;91229.31;;;-2.96;85.87
83896;BME280;74045;42.812;74.638;2024-01-15T01:24:32;91259.75;;;-2.80;86.04
83896;BME280;74045;42.812;74.638;2024-01-15T01:26:57;91257.63;;;-2.78;86.32
83896;BME280;74045;42.812;74.638;2024-01-15T01:29:23;91267.47;;;-2.72;86.14
83896;BME280;74045;42.812;74.638;2024-01-15T01:31:49;91268.53;;;-2.73;86.83
83896;BME280;74045;42.812;74.638;2024-01-15T01:34:15;91280.47;;;-2.59;86.20
83896;BME280;74045;42.812;74.638;2024-01-15T01:36:42;91277.25;;;-2.56;86.05
83896;BME280;74045;42.812;74.638;2024-01-15T01:39:08;91245.25;;;-2.73;85.98
83896;BME280;74045;42.812;74.638;2024-01-15T01:41:34;91184.50;;;-3.21;86.02
83896;BME280;74045;42.812;74.638;2024-01-15T01:44:00;91285.56;;;-2.51;86.38
83896;BME280;74045;42.812;74.638;2024-01-15T01:46:27;91273.66;;;-2.43;86.29
83896;BME280;74045;42.812;74.638;2024-01-15T01:48:54;91274.78;;;-2.32;86.83
83896;BME280;74045;42.812;74.638;2024-01-15T01:51:22;91229.50;;;-2.59;86.85
83896;BME280;74045;42.812;74.638;2024-01-15T01:53:48;91276.66;;;-2.20;85.88
83896;BME280;74045;42.812;74.638;2024-01-15T01:56:15;91258.09;;;-2.22;86.29
83896;BME280;74045;42.812;74.638;2024-01-15T01:58:42;91254.19;;;-2.28;86.77
83896;BME280;74045;42.812;74.638;2024-01-15T02:01:08;91293.94;;;-2.12;86.14
83896;BME280;74045;42.812;74.638;2024-01-15T02:03:34;91295.13;;;-2.09;86.41
83896;BME280;74045;42.812;74.638;2024-01-15T02:06:00;91278.56;;;-2.29;86.30
83896;BME280;74045;42.812;74.638;2024-01-15T02:08:26;91279.81;;;-2.35;86.21
83896;BME280;74045;42.812;74.638;2024-01-15T02:10:52;91311.22;;;-2.25;86.44
83896;BME280;74045;42.812;74.638;2024-01-15T02:13:18;91317.03;;;-2.28;87.20
83896;BME280;74045;42.812;74.638;2024-01-15T02:15:44;91314.78;;;-2.29;87.51
83896;BME280;74045;42.812;74.638;2024-01-15T02:18:10;91197.72;;;-2.80;86.48
83896;BME280;74045;42.812;74.638;2024-01-15T02:20:36;91317.44;;;-2.05;86.77
83896;BME280;74045;42.812;74.638;2024-01-15T02:23:14;91295.78;;;-2.00;85.81
83896;BME280;74045;42.812;74.638;2024-01-15T02:25:42;91291.16;;;-2.07;85.76
83896;BME280;74045;42.812;74.638;2024-01-15T02:28:11;91302.91;;;-2.09;85.59
83896;BME280;74045;42.812;74.638;2024-01-15T02:30:40;91305.78;;;-2.11;86.02
83896;BME280;74045;42.812;74.638;2024-01-15T02:33:07;91302.44;;;-2.11;85.30
83896;BME280;74045;42.812;74.638;2024-01-15T02:35:34;91272.13;;;-2.44;85.39
83896;BME280;74045;42.812;74.638;2024-01-15T02:38:02;91295.66;;;-2.37;85.39
83896;BME280;74045;42.812;74.638;2024-01-15T02:40:28;91291.00;;;-2.64;86.15
83896;BME280;74045;42.812;74.638;2024-01-15T02:42:54;91219.22;;;-3.09;85.94
83896;BME280;74045;42.812;74.638;2024-01-15T02:45:20;91267.22;;;-2.79;86.32
83896;BME280;74045;42.812;74.638;2024-01-15T02:47:46;91274.59;;;-2.68;86.31
83896;BME280;74045;42.812;74.638;2024-01-15T02:50:11;91294.66;;;-2.65;86.27
83896;BME280;74045;42.812;74.638;2024-01-15T02:52:37;91315.75;;;-2.63;86.29
83896;BME280;74045;42.812;74.638;2024-01-15T02:55:03;91310.34;;;-2.71;86.28
83896;BME280;74045;42.812;74.638;2024-01-15T02:57:29;91318.00;;;-2.74;86.81
83896;BME280;74045;42.812;74.638;2024-01-15T02:59:55;91325.13;;;-2.71;86.30
83896;BME280;74045;42.812;74.638;2024-01-15T03:02:20;91329.88;;;-2.82;85.38
83896;BME280;74045;42.812;74.638;2024-01-15T03:04:46;91330.78;;;-3.07;84.90
83896;BME280;74045;42.812;74.638;2024-01-15T03:07:12;91335.03;;;-3.41;85.43
83896;BME280;74045;42.812;74.638;2024-01-15T03:09:37;91340.22;;;-3.50;86.40
83896;BME280;74045;42.812;74.638;2024-01-15T03:12:04;91338.72;;;-3.60;86.39
83896;BME280;74045;42.812;74.638;2024-01-15T03:14:30;91304.81;;;-3.96;85.43
83896;BME280;74045;42.812;74.638;2024-01-15T03:16:55;91231.94;;;-4.66;86.09
83896;BME280;74045;42.812;74.638;2024-01-15T03:19:21;91296.53;;;-4.37;86.73
83896;BME280;74045;42.812;74.638;2024-01-15T03:21:47;91294.22;;;-4.38;86.38
83896;BME280;74045;42.812;74.638;2024-01-15T03:24:13;91305.16;;;-4.41;86.44
83896;BME280;74045;42.812;74.638;2024-01-15T03:26:38;91340.94;;;-4.48;86.01
83896;BME280;74045;42.812;74.638;2024-01-15T03:29:04;91378.56;;;-4.47;87.13
83896;BME280;74045;42.812;74.638;2024-01-15T03:31:30;91385.63;;;-4.79;85.84
83896;BME280;74045;42.812;74.638;2024-01-15T03:33:56;91269.91;;;-5.81;86.21
83896;BME280;74045;42.812;74.638;2024-01-15T03:36:22;91375.19;;;-5.23;87.17
83896;BME280;74045;42.812;74.638;2024-01-15T03:38:47;91381.84;;;-5.22;88.02
83896;BME280;74045;42.812;74.638;2024-01-15T03:41:13;91350.69;;;-5.60;87.71
83896;BME280;74045;42.812;74.638;2024-01-15T03:43:39;91338.06;;;-5.70;87.41
83896;BME280;74045;42.812;74.638;2024-01-15T03:46:05;91400.53;;;-5.47;89.26
83896;BME280;74045;42.812;74.638;2024-01-15T03:48:31;91383.97;;;-5.55;88.93
83896;BME280;74045;42.812;74.638;2024-01-15T03:50:57;91391.59;;;-5.50;89.97
83896;BME280;74045;42.812;74.638;2024-01-15T03:53:23;91392.28;;;-5.58;90.20
83896;BME280;74045;42.812;74.638;2024-01-15T03:55:49;91392.19;;;-5.53;89.94
83896;BME280;74045;42.812;74.638;2024-01-15T03:58:15;91411.50;;;-5.33;89.74
83896;BME280;74045;42.812;74.638;2024-01-15T04:00:42;91408.97;;;-5.24;89.91
83896;BME280;74045;42.812;74.638;2024-01-15T04:03:08;91410.31;;;-5.27;88.96
83896;BME280;74045;42.812;74.638;2024-01-15T04:05:34;91339.88;;;-5.71;88.83
83896;BME280;74045;42.812;74.638;2024-01-15T04:07:59;91396.06;;;-5.33;88.31
83896;BME280;74045;42.812;74.638;2024-01-15T04:10:25;91412.34;;;-5.46;88.53
83896;BME280;74045;42.812;74.638;2024-01-15T04:12:51;91432.19;;;-5.47;88.43
83896;BME280;74045;42.812;74.638;2024-01-15T04:15:17;91396.44;;;-5.79;88.50
83896;BME280;74045;42.812;74.638;2024-01-15T04:17:43;91427.69;;;-5.64;88.45
83896;BME280;74045;42.812;74.638;2024-01-15T04:20:09;91408.72;;;-5.76;88.75
83896;BME280;74045;42.812;74.638;2024-01-15T04:22:35;91393.78;;;-5.88;89.06
83896;BME280;74045;42.812;74.638;2024-01-15T04:25:01;91407.28;;;-5.82;88.59
83896;BME280;74045;42.812;74.638;2024-01-15T04:27:28;91391.41;;;-5.85;88.87
83896;BME280;74045;42.812;74.638;2024-01-15T04:29:53;91415.88;;;-5.65;88.74
83896;BME280;74045;42.812;74.638;2024-01-15T04:32:19;91390.06;;;-5.82;89.20
83896;BME280;74045;42.812;74.638;2024-01-15T04:34:45;91409.22;;;-5.66;88.56
83896;BME280;74045;42.812;74.638;2024-01-15T04:37:11;91404.00;;;-5.74;88.48
83896;BME280;74045;42.812;74.638;2024-01-15T04:39:38;91405.88;;;-5.66;88.77
83896;BME280;74045;42.812;74.638;2024-01-15T04:42:04;91351.44;;;-5.91;88.73
83896;BME280;74045;42.812;74.638;2024-01-15T04:44:30;91404.72;;;-5.60;88.56
83896;BME280;74045;42.812;74.638;2024-01-15T04:46:55;91313.13;;;-6.23;87.97
83896;BME280;74045;42.812;74.638;2024-01-15T04:49:21;91409.41;;;-5.62;88.11
83896;BME280;74045;42.812;74.638;2024-01-15T04:51:47;91435.13;;;-5.62;88.08
83896;BME280;74045;42.812;74.638;2024-01-15T04:54:12;91414.72;;;-5.81;87.51
83896;BME280;74045;42.812;74.638;2024-01-15T04:56:38;91409.47;;;-5.76;88.45
83896;BME280;74045;42.812;74.638;2024-01-15T04:59:04;91420.44;;;-5.62;88.49
83896;BME280;74045;42.812;74.638;2024-01-15T05:01:32;91436.28;;;-5.46;88.72
83896;BME280;74045;42.812;74.638;2024-01-15T05:03:59;91317.44;;;-6.10;88.65
83896;BME280;74045;42.812;74.638;2024-01-15T05:06:25;91421.97;;;-5.29;88.45
83896;BME280;74045;42.812;74.638;2024-01-15T05:08:50;91450.44;;;-5.34;87.81
83896;BME280;74045;42.812;74.638;2024-01-15T05:11:16;91434.28;;;-5.26;87.62
83896;BME280;74045;42.812;74.638;2024-01-15T05:13:41;91402.66;;;-5.41;87.14
83896;BME280;74045;42.812;74.638;2024-01-15T05:16:07;91437.09;;;-5.36;86.46
83896;BME280;74045;42.812;74.638;2024-01-15T05:18:33;91437.69;;;-5.40;87.21
83896;BME280;74045;42.812;74.638;2024-01-15T05:20:58;91443.16;;;-5.32;87.78
83896;BME280;74045;42.812;74.638;2024-01-15T05:23:24;91443.22;;;-5.46;87.35
83896;BME280;74045;42.812;74.638;2024-01-15T05:25:50;91477.91;;;-5.44;87.59
83896;BME280;74045;42.812;74.638;2024-01-15T05:28:16;91495.22;;;-5.35;87.49
83896;BME280;74045;42.812;74.638;2024-01-15T05:30:41;91494.31;;;-5.40;87.15
83896;BME280;74045;42.812;74.638;2024-01-15T05:33:07;91456.00;;;-5.64;87.45
83896;BME280;74045;42.812;74.638;2024-01-15T05:35:34;91407.53;;;-5.93;87.59
83896;BME280;74045;42.812;74.638;2024-01-15T05:37:59;91416.41;;;-6.07;87.34
83896;BME280;74045;42.812;74.638;2024-01-15T05:40:25;91508.22;;;-5.41;86.36
83896;BME280;74045;42.812;74.638;2024-01-15T05:42:51;91438.66;;;-6.03;86.59
83896;BME280;74045;42.812;74.638;2024-01-15T05:45:17;91521.88;;;-5.63;87.58
83896;BME280;74045;42.812;74.638;2024-01-15T05:47:42;91326.69;;;-7.04;86.59
83896;BME280;74045;42.812;74.638;2024-01-15T05:50:09;91529.38;;;-5.89;86.11
83896;BME280;74045;42.812;74.638;2024-01-15T05:52:35;91433.09;;;-6.55;86.68
83896;BME280;74045;42.812;74.638;2024-01-15T05:55:01;91528.78;;;-5.86;87.06
83896;BME280;74045;42.812;74.638;2024-01-15T05:57:26;91530.50;;;-5.81;87.78
83896;BME280;74045;42.812;74.638;2024-01-15T05:59:53;91531.25;;;-5.80;87.95
83896;BME280;74045;42.812;74.638;2024-01-15T06:02:19;91545.13;;;-5.68;87.45
83896;BME280;74045;42.812;74.638;2024-01-15T06:04:44;91546.47;;;-5.70;87.10
83896;BME280;74045;42.812;74.638;2024-01-15T06:07:10;91531.91;;;-5.75;86.59
83896;BME280;74045;42.812;74.638;2024-01-15T06:09:36;91518.38;;;-6.03;85.77
83896;BME280;74045;42.812;74.638;2024-01-15T06:12:02;91545.34;;;-6.14;86.45
83896;BME280;74045;42.812;74.638;2024-01-15T06:14:28;91531.84;;;-6.34;86.34
83896;BME280;74045;42.812;74.638;2024-01-15T06:16:53;91554.72;;;-6.32;86.95
83896;BME280;74045;42.812;74.638;2024-01-15T06:19:19;91536.31;;;-6.39;87.16
83896;BME280;74045;42.812;74.638;2024-01-15T06:21:45;91539.94;;;-6.26;87.08
83896;BME280;74045;42.812;74.638;2024-01-15T06:24:10;91465.25;;;-6.85;87.15
83896;BME280;74045;42.812;74.638;2024-01-15T06:26:36;91546.59;;;-6.39;87.01
83896;BME280;74045;42.812;74.638;2024-01-15T06:29:02;91539.78;;;-6.30;87.00
83896;BME280;74045;42.812;74.638;2024-01-15T06:31:28;91554.69;;;-6.18;87.29
83896;BME280;74045;42.812;74.638;2024-01-15T06:33:55;91533.00;;;-6.26;86.98
83896;BME280;74045;42.812;74.638;2024-01-15T06:36:21;91548.88;;;-6.10;86.58
83896;BME280;74045;42.812;74.638;2024-01-15T06:38:47;91549.47;;;-6.13;86.29
83896;BME280;74045;42.812;74.638;2024-01-15T06:41:13;91509.00;;;-6.35;86.37
83896;BME280;74045;42.812;74.638;2024-01-15T06:43:39;91545.84;;;-6.12;86.32
83896;BME280;74045;42.812;74.638;2024-01-15T06:46:04;91561.34;;;-6.03;86.63
83896;BME280;74045;42.812;74.638;2024-01-15T06:48:30;91545.63;;;-6.02;86.01
83896;BME280;74045;42.812;74.638;2024-01-15T06:50:56;91547.16;;;-6.15;85.31
83896;BME280;74045;42.812;74.638;2024-01-15T06:53:21;91559.38;;;-6.20;85.58
83896;BME280;74045;42.812;74.638;2024-01-15T06:55:48;91569.25;;;-6.27;86.03
83896;BME280;74045;42.812;74.638;2024-01-15T06:58:14;91565.25;;;-6.34;86.80
83896;BME280;74045;42.812;74.638;2024-01-15T07:00:40;91551.25;;;-6.27;86.96
83896;BME280;74045;42.812;74.638;2024-01-15T07:03:06;91555.47;;;-6.18;86.30
83896;BME280;74045;42.812;74.638;2024-01-15T07:05:32;91546.41;;;-6.15;86.16
83896;BME280;74045;42.812;74.638;2024-01-15T07:07:58;91549.84;;;-6.20;86.65
83896;BME280;74045;42.812;74.638;2024-01-15T07:10:24;91575.53;;;-6.06;86.53
83896;BME280;74045;42.812;74.638;2024-01-15T07:12:50;91562.41;;;-6.18;85.68
83896;BME280;74045;42.812;74.638;2024-01-15T07:15:15;91558.88;;;-6.22;85.75
83896;BME280;74045;42.812;74.638;2024-01-15T07:17:41;91575.94;;;-6.26;85.92
83896;BME280;74045;42.812;74.638;2024-01-15T07:20:08;91573.56;;;-6.37;85.99
83896;BME280;74045;42.812;74.638;2024-01-15T07:22:37;91569.66;;;-6.34;87.07
83896;BME280;74045;42.812;74.638;2024-01-15T07:25:04;91575.38;;;-6.23;87.48
83896;BME280;74045;42.812;74.638;2024-01-15T07:27:31;91601.34;;;-6.11;86.90
83896;BME280;74045;42.812;74.638;2024-01-15T07:29:57;91567.06;;;-6.06;87.01
83896;BME280;74045;42.812;74.638;2024-01-15T07:32:23;91558.59;;;-6.07;86.33
83896;BME280;74045;42.812;74.638;2024-01-15T07:34:49;91471.81;;;-6.51;86.07
83896;BME280;74045;42.812;74.638;2024-01-15T07:37:15;91567.16;;;-5.98;86.05
83896;BME280;74045;42.812;74.638;2024-01-15T07:39:40;91486.09;;;-6.59;85.93
83896;BME280;74045;42.812;74.638;2024-01-15T07:42:06;91564.56;;;-5.98;86.00
83896;BME280;74045;42.812;74.638;2024-01-15T07:44:33;91552.94;;;-5.95;85.72
83896;BME280;74045;42.812;74.638;2024-01-15T07:46:59;91556.28;;;-5.95;86.14
83896;BME280;74045;42.812;74.638;2024-01-15T07:49:25;91576.03;;;-5.81;86.30
83896;BME280;74045;42.812;74.638;2024-01-15T07:51:50;91567.94;;;-5.89;85.55
83896;BME280;74045;42.812;74.638;2024-01-15T07:54:16;91578.38;;;-5.94;85.37
83896;BME280;74045;42.812;74.638;2024-01-15T07:57:01;91565.72;;;-6.04;85.47
83896;BME280;74045;42.812;74.638;2024-01-15T07:59:30;91552.97;;;-6.09;85.71
83896;BME280;74045;42.812;74.638;2024-01-15T08:01:59;91549.06;;;-6.06;86.44
83896;BME280;74045;42.812;74.638;2024-01-15T08:04:25;91460.31;;;-6.68;86.80
83896;BME280;74045;42.812;74.638;2024-01-15T08:06:50;91559.53;;;-6.03;86.31
83896;BME280;74045;42.812;74.638;2024-01-15T08:09:16;91463.81;;;-6.64;85.18
83896;BME280;74045;42.812;74.638;2024-01-15T08:11:43;91545.84;;;-6.26;85.67
83896;BME280;74045;42.812;74.638;2024-01-15T08:14:10;91591.53;;;-6.23;85.58
83896;BME280;74045;42.812;74.638;2024-01-15T08:16:39;91491.09;;;-7.09;86.28
83896;BME280;74045;42.812;74.638;2024-01-15T08:19:05;91588.47;;;-6.53;86.17
83896;BME280;74045;42.812;74.638;2024-01-15T08:21:31;91609.25;;;-6.49;86.96
83896;BME280;74045;42.812;74.638;2024-01-15T08:23:58;91575.75;;;-6.58;86.91
83896;BME280;74045;42.812;74.638;2024-01-15T08:26:24;91568.69;;;-6.52;86.66
83896;BME280;74045;42.812;74.638;2024-01-15T08:28:50;91568.97;;;-6.54;86.47
83896;BME280;74045;42.812;74.638;2024-01-15T08:31:16;91589.44;;;-6.48;86.17
83896;BME280;74045;42.812;74.638;2024-01-15T08:33:42;91629.06;;;-6.36;86.22
83896;BME280;74045;42.812;74.638;2024-01-15T08:36:09;91590.03;;;-6.51;86.24
83896;BME280;74045;42.812;74.638;2024-01-15T08:38:35;91608.50;;;-6.36;86.80
83896;BME280;74045;42.812;74.638;2024-01-15T08:41:01;91606.13;;;-6.46;86.61
83896;BME280;74045;42.812;74.638;2024-01-15T08:43:27;91619.44;;;-6.44;86.37
83896;BME280;74045;42.812;74.638;2024-01-15T08:45:53;91624.84;;;-6.59;85.99
83896;BME280;74045;42.812;74.638;2024-01-15T08:48:19;91624.47;;;-6.66;86.79
83896;BME280;74045;42.812;74.638;2024-01-15T08:50:45;91540.09;;;-7.38;87.07
83896;BME280;74045;42.812;74.638;2024-01-15T08:53:14;91633.03;;;-6.57;86.52
83896;BME280;74045;42.812;74.638;2024-01-15T08:55:40;91647.69;;;-6.58;86.92
83896;BME280;74045;42.812;74.638;2024-01-15T08:58:08;91634.16;;;-6.63;86.78
83896;BME280;74045;42.812;74.638;2024-01-15T09:00:34;91647.78;;;-6.63;87.71
83896;BME280;74045;42.812;74.638;2024-01-15T09:02:59;91538.34;;;-7.24;87.48
83896;BME280;74045;42.812;74.638;2024-01-15T09:05:25;91659.09;;;-6.50;86.84
83896;BME280;74045;42.812;74.638;2024-01-15T09:07:51;91638.09;;;-6.52;87.33
83896;BME280;74045;42.812;74.638;2024-01-15T09:10:20;91455.19;;;-7.56;86.46
83896;BME280;74045;42.812;74.638;2024-01-15T09:12:46;91623.16;;;-6.36;87.17
83896;BME280;74045;42.812;74.638;2024-01-15T09:15:12;91654.09;;;-6.14;85.76
83896;BME280;74045;42.812;74.638;2024-01-15T09:17:38;91620.22;;;-6.29;86.49
83896;BME280;74045;42.812;74.638;2024-01-15T09:20:04;91658.00;;;-6.02;86.64
83896;BME280;74045;42.812;74.638;2024-01-15T09:22:31;91662.94;;;-5.92;86.18
83896;BME280;74045;42.812;74.638;2024-01-15T09:24:57;91656.59;;;-5.95;86.23
83896;BME280;74045;42.812;74.638;2024-01-15T09:27:23;91667.69;;;-5.86;86.27
83896;BME280;74045;42.812;74.638;2024-01-15T09:29:52;91662.69;;;-5.91;86.08
83896;BME280;74045;42.812;74.638;2024-01-15T09:32:17;91671.72;;;-5.79;85.98
83896;BME280;74045;42.812;74.638;2024-01-15T09:34:44;91691.50;;;-5.66;86.29
83896;BME280;74045;42.812;74.638;2024-01-15T09:37:12;91699.16;;;-5.61;86.36
83896;BME280;74045;42.812;74.638;2024-01-15T09:39:38;91689.03;;;-5.57;85.61
83896;BME280;74045;42.812;74.638;2024-01-15T09:42:05;91666.94;;;-5.72;85.50
83896;BME280;74045;42.812;74.638;2024-01-15T09:44:31;91666.00;;;-5.63;85.74
83896;BME280;74045;42.812;74.638;2024-01-15T09:46:57;91697.91;;;-5.50;85.24
83896;BME280;74045;42.812;74.638;2024-01-15T09:49:23;91716.97;;;-5.51;84.96
83896;BME280;74045;42.812;74.638;2024-01-15T09:51:49;91697.22;;;-5.55;84.96
83896;BME280;74045;42.812;74.638;2024-01-15T09:54:16;91692.31;;;-5.66;85.05
83896;BME280;74045;42.812;74.638;2024-01-15T09:56:48;91578.78;;;-6.42;84.46
83896;BME280;74045;42.812;74.638;2024-01-15T09:59:18;91682.47;;;-5.77;85.60
83896;BME280;74045;42.812;74.638;2024-01-15T10:01:45;91674.38;;;-5.85;85.33
83896;BME280;74045;42.812;74.638;2024-01-15T10:04:12;91656.66;;;-5.86;85.23
83896;BME280;74045;42.812;74.638;2024-01-15T10:06:38;91568.31;;;-6.45;84.48
83896;BME280;74045;42.812;74.638;2024-01-15T10:09:07;91653.59;;;-5.88;84.72
83896;BME280;74045;42.812;74.638;2024-01-15T10:11:33;91670.94;;;-5.66;84.59
83896;BME280;74045;42.812;74.638;2024-01-15T10:13:59;91690.75;;;-5.67;84.89
83896;BME280;74045;42.812;74.638;2024-01-15T10:16:25;91587.81;;;-6.31;84.73
83896;BME280;74045;42.812;74.638;2024-01-15T10:18:51;91684.84;;;-5.67;84.42
83896;BME280;74045;42.812;74.638;2024-01-15T10:21:17;91684.47;;;-5.74;84.62
83896;BME280;74045;42.812;74.638;2024-01-15T10:23:42;91688.69;;;-5.78;84.39
83896;BME280;74045;42.812;74.638;2024-01-15T10:26:09;91679.13;;;-5.92;84.34
83896;BME280;74045;42.812;74.638;2024-01-15T10:28:37;91699.25;;;-5.94;84.13
83896;BME280;74045;42.812;74.638;2024-01-15T10:31:03;91672.50;;;-6.06;84.52
83896;BME280;74045;42.812;74.638;2024-01-15T10:33:30;91605.59;;;-6.62;85.12
83896;BME280;74045;42.812;74.638;2024-01-15T10:36:00;91636.44;;;-6.62;84.80
83896;BME280;74045;42.812;74.638;2024-01-15T10:38:26;91705.19;;;-6.07;84.54
83896;BME280;74045;42.812;74.638;2024-01-15T10:40:53;91725.66;;;-6.02;84.42
83896;BME280;74045;42.812;74.638;2024-01-15T10:43:20;91730.81;;;-6.02;85.21
83896;BME280;74045;42.812;74.638;2024-01-15T10:45:46;91743.69;;;-6.02;85.10
83896;BME280;74045;42.812;74.638;2024-01-15T10:48:13;91738.41;;;-5.97;85.25
83896;BME280;74045;42.812;74.638;2024-01-15T10:50:39;91741.94;;;-5.93;85.48
83896;BME280;74045;42.812;74.638;2024-01-15T10:53:05;91643.78;;;-6.55;85.30
83896;BME280;74045;42.812;74.638;2024-01-15T10:55:35;91732.59;;;-5.89;84.96
83896;BME280;74045;42.812;74.638;2024-01-15T10:58:02;91742.41;;;-5.91;84.25
83896;BME280;74045;42.812;74.638;2024-01-15T11:00:29;91697.06;;;-6.14;84.06
83896;BME280;74045;42.812;74.638;2024-01-15T11:02:56;91623.56;;;-6.76;84.42
83896;BME280;74045;42.812;74.638;2024-01-15T11:05:22;91747.47;;;-5.99;84.19
83896;BME280;74045;42.812;74.638;2024-01-15T11:07:55;91741.66;;;-6.05;84.19
83896;BME280;74045;42.812;74.638;2024-01-15T11:10:51;91730.97;;;-6.12;84.58
83896;BME280;74045;42.812;74.638;2024-01-15T11:18:22;91730.69;;;-6.11;83.99
83896;BME280;74045;42.812;74.638;2024-01-15T11:23:53;91718.78;;;-6.20;84.11
83896;BME280;74045;42.812;74.638;2024-01-15T11:28:57;91733.53;;;-6.26;83.89
83896;BME280;74045;42.812;74.638;2024-01-15T11:34:12;91731.72;;;-6.25;83.98
83896;BME280;74045;42.812;74.638;2024-01-15T11:42:03;91742.56;;;-6.28;84.26
83896;BME280;74045;42.812;74.638;2024-01-15T11:44:29;91713.50;;;-6.43;84.40
83896;BME280;74045;42.812;74.638;2024-01-15T11:47:09;91722.81;;;-6.33;83.25
83896;BME280;74045;42.812;74.638;2024-01-15T11:52:11;91715.09;;;-6.47;83.80
83896;BME280;74045;42.812;74.638;2024-01-15T11:54:41;91740.41;;;-6.54;83.83
83896;BME280;74045;42.812;74.638;2024-01-15T11:57:18;91735.31;;;-6.59;84.40
83896;BME280;74045;42.812;74.638;2024-01-15T11:59:44;91707.78;;;-6.72;84.20
83896;BME280;74045;42.812;74.638;2024-01-15T12:02:10;91650.03;;;-7.08;84.14
83896;BME280;74045;42.812;74.638;2024-01-15T12:04:38;91691.78;;;-6.83;84.35
83896;BME280;74045;42.812;74.638;2024-01-15T12:07:04;91664.72;;;-6.94;84.31
83896;BME280;74045;42.812;74.638;2024-01-15T12:09:30;91716.38;;;-6.63;83.70
83896;BME280;74045;42.812;74.638;2024-01-15T12:12:03;91724.09;;;-6.63;84.26
83896;BME280;74045;42.812;74.638;2024-01-15T12:14:33;91712.56;;;-6.66;84.30
83896;BME280;74045;42.812;74.638;2024-01-15T12:17:00;91720.34;;;-6.71;84.40
83896;BME280;74045;42.812;74.638;2024-01-15T12:19:26;91699.59;;;-6.74;85.54
83896;BME280;74045;42.812;74.638;2024-01-15T12:21:51;91725.13;;;-6.64;84.56
83896;BME280;74045;42.812;74.638;2024-01-15T12:24:17;91608.69;;;-7.25;84.19
83896;BME280;74045;42.812;74.638;2024-01-15T12:26:44;91709.06;;;-6.56;84.74
83896;BME280;74045;42.812;74.638;2024-01-15T12:29:11;91708.22;;;-6.51;84.54
83896;BME280;74045;42.812;74.638;2024-01-15T12:31:37;91716.63;;;-6.46;84.45
83896;BME280;74045;42.812;74.638;2024-01-15T12:34:02;91699.28;;;-6.54;84.47
83896;BME280;74045;42.812;74.638;2024-01-15T12:36:31;91729.84;;;-6.39;84.15
83896;BME280;74045;42.812;74.638;2024-01-15T12:39:00;91710.16;;;-6.43;85.14
83896;BME280;74045;42.812;74.638;2024-01-15T12:41:26;91631.44;;;-6.86;84.59
83896;BME280;74045;42.812;74.638;2024-01-15T12:43:51;91693.22;;;-6.31;84.46
83896;BME280;74045;42.812;74.638;2024-01-15T12:46:17;91612.22;;;-6.88;83.77
83896;BME280;74045;42.812;74.638;2024-01-15T12:48:44;91685.28;;;-6.48;84.46
83896;BME280;74045;42.812;74.638;2024-01-15T12:51:10;91711.44;;;-6.27;84.63
83896;BME280;74045;42.812;74.638;2024-01-15T12:53:36;91714.03;;;-6.13;84.80
83896;BME280;74045;42.812;74.638;2024-01-15T12:56:01;91644.47;;;-6.49;83.51
83896;BME280;74045;42.812;74.638;2024-01-15T12:58:28;91702.78;;;-6.03;84.04
83896;BME280;74045;42.812;74.638;2024-01-15T13:00:53;91673.81;;;-6.23;83.87
83896;BME280;74045;42.812;74.638;2024-01-15T13:03:19;91684.09;;;-6.23;84.58
83896;BME280;74045;42.812;74.638;2024-01-15T13:05:45;91592.75;;;-6.76;84.07
83896;BME280;74045;42.812;74.638;2024-01-15T13:08:11;91682.03;;;-6.07;83.13